sensor_id;sensor_type;location;lat;lon;timestamp;P1;durP1;ratioP1;P2;durP2;ratioP2
40931;SDS011;36257;46.052;12.540;2024-03-22T00:00:17;4.30;;;3.88;;
40931;SDS011;36257;46.052;12.540;2024-03-22T00:02:42;6.47;;;5.72;;
40931;SDS011;36257;46.052;12.540;2024-03-22T00:05:08;5.30;;;4.80;;
40931;SDS011;36257;46.052;12.540;2024-03-22T00:07:34;7.18;;;5.07;;
40931;SDS011;36257;46.052;12.540;2024-03-22T00:10:00;4.85;;;4.35;;
40931;SDS011;36257;46.052;12.540;2024-03-22T00:12:26;5.75;;;4.70;;
40931;SDS011;36257;46.052;12.540;2024-03-22T00:14:51;5.95;;;4.63;;
40931;SDS011;36257;46.052;12.540;2024-03-22T00:17:19;4.65;;;4.25;;
40931;SDS011;36257;46.052;12.540;2024-03-22T00:19:45;7.55;;;4.68;;
40931;SDS011;36257;46.052;12.540;2024-03-22T00:22:11;4.88;;;4.28;;
40931;SDS011;36257;46.052;12.540;2024-03-22T00:24:37;4.85;;;4.45;;
40931;SDS011;36257;46.052;12.540;2024-03-22T00:27:02;4.40;;;4.00;;
40931;SDS011;36257;46.052;12.540;2024-03-22T00:29:28;6.45;;;4.85;;
40931;SDS011;36257;46.052;12.540;2024-03-22T00:31:54;4.93;;;4.53;;
40931;SDS011;36257;46.052;12.540;2024-03-22T00:34:20;5.30;;;4.50;;
40931;SDS011;36257;46.052;12.540;2024-03-22T00:36:45;4.35;;;3.95;;
40931;SDS011;36257;46.052;12.540;2024-03-22T00:39:11;5.00;;;4.50;;
40931;SDS011;36257;46.052;12.540;2024-03-22T00:41:37;5.20;;;4.70;;
40931;SDS011;36257;46.052;12.540;2024-03-22T00:44:04;4.93;;;4.53;;
40931;SDS011;36257;46.052;12.540;2024-03-22T00:46:29;5.70;;;4.35;;
40931;SDS011;36257;46.052;12.540;2024-03-22T00:48:56;5.35;;;4.85;;
40931;SDS011;36257;46.052;12.540;2024-03-22T00:51:23;6.13;;;5.35;;
40931;SDS011;36257;46.052;12.540;2024-03-22T00:53:50;5.75;;;5.28;;
40931;SDS011;36257;46.052;12.540;2024-03-22T00:56:15;6.60;;;5.47;;
40931;SDS011;36257;46.052;12.540;2024-03-22T00:58:41;6.18;;;5.55;;
40931;SDS011;36257;46.052;12.540;2024-03-22T01:01:06;5.47;;;5.00;;
40931;SDS011;36257;46.052;12.540;2024-03-22T01:03:32;5.03;;;4.07;;
40931;SDS011;36257;46.052;12.540;2024-03-22T01:05:58;5.25;;;4.70;;
40931;SDS011;36257;46.052;12.540;2024-03-22T01:08:23;5.78;;;4.80;;
40931;SDS011;36257;46.052;12.540;2024-03-22T01:10:49;5.70;;;4.50;;
40931;SDS011;36257;46.052;12.540;2024-03-22T01:13:16;5.93;;;5.00;;
40931;SDS011;36257;46.052;12.540;2024-03-22T01:15:41;5.20;;;4.70;;
40931;SDS011;36257;46.052;12.540;2024-03-22T01:18:10;5.20;;;4.50;;
40931;SDS011;36257;46.052;12.540;2024-03-22T01:20:36;4.25;;;3.90;;
40931;SDS011;36257;46.052;12.540;2024-03-22T01:23:03;5.47;;;5.00;;
40931;SDS011;36257;46.052;12.540;2024-03-22T01:25:29;4.53;;;4.13;;
40931;SDS011;36257;46.052;12.540;2024-03-22T01:27:55;4.50;;;4.10;;
40931;SDS011;36257;46.052;12.540;2024-03-22T01:30:21;4.28;;;3.67;;
40931;SDS011;36257;46.052;12.540;2024-03-22T01:32:48;4.65;;;4.05;;
40931;SDS011;36257;46.052;12.540;2024-03-22T01:35:13;8.60;;;5.53;;
40931;SDS011;36257;46.052;12.540;2024-03-22T01:37:40;7.03;;;6.22;;
40931;SDS011;36257;46.052;12.540;2024-03-22T01:40:07;6.95;;;6.05;;
40931;SDS011;36257;46.052;12.540;2024-03-22T01:42:33;6.03;;;5.20;;
40931;SDS011;36257;46.052;12.540;2024-03-22T01:44:59;5.90;;;5.30;;
40931;SDS011;36257;46.052;12.540;2024-03-22T01:47:24;5.78;;;4.47;;
40931;SDS011;36257;46.052;12.540;2024-03-22T01:49:51;5.05;;;4.50;;
40931;SDS011;36257;46.052;12.540;2024-03-22T01:52:20;4.40;;;4.00;;
40931;SDS011;36257;46.052;12.540;2024-03-22T01:54:45;5.03;;;4.63;;
40931;SDS011;36257;46.052;12.540;2024-03-22T01:57:11;4.45;;;4.05;;
40931;SDS011;36257;46.052;12.540;2024-03-22T01:59:36;4.57;;;4.18;;
40931;SDS011;36257;46.052;12.540;2024-03-22T02:02:04;5.80;;;4.63;;
40931;SDS011;36257;46.052;12.540;2024-03-22T02:04:30;4.65;;;4.18;;
40931;SDS011;36257;46.052;12.540;2024-03-22T02:06:56;6.22;;;5.32;;
40931;SDS011;36257;46.052;12.540;2024-03-22T02:09:21;8.60;;;5.30;;
40931;SDS011;36257;46.052;12.540;2024-03-22T02:11:48;5.68;;;5.15;;
40931;SDS011;36257;46.052;12.540;2024-03-22T02:14:14;6.07;;;5.30;;
40931;SDS011;36257;46.052;12.540;2024-03-22T02:16:40;7.35;;;5.70;;
40931;SDS011;36257;46.052;12.540;2024-03-22T02:19:06;8.07;;;5.43;;
40931;SDS011;36257;46.052;12.540;2024-03-22T02:21:32;6.57;;;4.35;;
40931;SDS011;36257;46.052;12.540;2024-03-22T02:23:58;5.05;;;4.38;;
40931;SDS011;36257;46.052;12.540;2024-03-22T02:26:24;5.22;;;4.15;;
40931;SDS011;36257;46.052;12.540;2024-03-22T02:28:49;4.90;;;4.35;;
40931;SDS011;36257;46.052;12.540;2024-03-22T02:31:15;5.22;;;3.85;;
40931;SDS011;36257;46.052;12.540;2024-03-22T02:33:41;4.57;;;3.85;;
40931;SDS011;36257;46.052;12.540;2024-03-22T02:36:06;8.20;;;4.78;;
40931;SDS011;36257;46.052;12.540;2024-03-22T02:38:32;4.38;;;3.97;;
40931;SDS011;36257;46.052;12.540;2024-03-22T02:40:58;3.70;;;3.40;;
40931;SDS011;36257;46.052;12.540;2024-03-22T02:43:24;4.85;;;3.72;;
40931;SDS011;36257;46.052;12.540;2024-03-22T02:45:50;4.70;;;4.03;;
40931;SDS011;36257;46.052;12.540;2024-03-22T02:48:15;4.72;;;4.32;;
40931;SDS011;36257;46.052;12.540;2024-03-22T02:50:41;5.10;;;4.60;;
40931;SDS011;36257;46.052;12.540;2024-03-22T02:53:07;5.32;;;4.93;;
40931;SDS011;36257;46.052;12.540;2024-03-22T02:55:36;4.63;;;4.22;;
40931;SDS011;36257;46.052;12.540;2024-03-22T02:58:05;5.88;;;4.25;;
40931;SDS011;36257;46.052;12.540;2024-03-22T03:00:31;3.83;;;3.53;;
40931;SDS011;36257;46.052;12.540;2024-03-22T03:03:01;5.35;;;4.22;;
40931;SDS011;36257;46.052;12.540;2024-03-22T03:05:26;3.65;;;3.35;;
40931;SDS011;36257;46.052;12.540;2024-03-22T03:07:52;4.03;;;3.72;;
40931;SDS011;36257;46.052;12.540;2024-03-22T03:10:17;3.90;;;3.60;;
40931;SDS011;36257;46.052;12.540;2024-03-22T03:12:43;3.72;;;3.38;;
40931;SDS011;36257;46.052;12.540;2024-03-22T03:15:09;4.00;;;3.63;;
40931;SDS011;36257;46.052;12.540;2024-03-22T03:17:34;5.95;;;4.43;;
40931;SDS011;36257;46.052;12.540;2024-03-22T03:20:00;4.72;;;4.28;;
40931;SDS011;36257;46.052;12.540;2024-03-22T03:22:25;4.07;;;3.78;;
40931;SDS011;36257;46.052;12.540;2024-03-22T03:24:51;4.10;;;3.72;;
40931;SDS011;36257;46.052;12.540;2024-03-22T03:27:17;4.03;;;3.70;;
40931;SDS011;36257;46.052;12.540;2024-03-22T03:29:42;4.72;;;4.03;;
40931;SDS011;36257;46.052;12.540;2024-03-22T03:32:08;3.70;;;3.40;;
40931;SDS011;36257;46.052;12.540;2024-03-22T03:34:34;3.58;;;3.28;;
40931;SDS011;36257;46.052;12.540;2024-03-22T03:36:59;3.67;;;3.00;;
40931;SDS011;36257;46.052;12.540;2024-03-22T03:39:26;3.08;;;2.88;;
40931;SDS011;36257;46.052;12.540;2024-03-22T03:41:54;4.03;;;3.50;;
40931;SDS011;36257;46.052;12.540;2024-03-22T03:44:20;3.80;;;3.47;;
40931;SDS011;36257;46.052;12.540;2024-03-22T03:46:45;3.97;;;3.63;;
40931;SDS011;36257;46.052;12.540;2024-03-22T03:49:11;3.53;;;3.22;;
40931;SDS011;36257;46.052;12.540;2024-03-22T03:51:36;6.18;;;3.10;;
40931;SDS011;36257;46.052;12.540;2024-03-22T03:54:03;3.35;;;3.05;;
40931;SDS011;36257;46.052;12.540;2024-03-22T03:56:29;3.72;;;3.42;;
40931;SDS011;36257;46.052;12.540;2024-03-22T03:58:54;4.18;;;3.88;;
40931;SDS011;36257;46.052;12.540;2024-03-22T04:01:20;3.40;;;3.20;;
40931;SDS011;36257;46.052;12.540;2024-03-22T04:03:48;3.25;;;3.05;;
40931;SDS011;36257;46.052;12.540;2024-03-22T04:06:14;2.97;;;2.85;;
40931;SDS011;36257;46.052;12.540;2024-03-22T04:08:39;3.40;;;3.20;;
40931;SDS011;36257;46.052;12.540;2024-03-22T04:11:05;3.63;;;3.35;;
40931;SDS011;36257;46.052;12.540;2024-03-22T04:13:30;3.22;;;3.03;;
40931;SDS011;36257;46.052;12.540;2024-03-22T04:15:58;3.55;;;3.25;;
40931;SDS011;36257;46.052;12.540;2024-03-22T04:20:55;3.97;;;3.67;;
40931;SDS011;36257;46.052;12.540;2024-03-22T04:23:22;3.75;;;3.42;;
40931;SDS011;36257;46.052;12.540;2024-03-22T04:26:07;3.47;;;3.07;;
40931;SDS011;36257;46.052;12.540;2024-03-22T04:28:33;4.00;;;3.70;;
40931;SDS011;36257;46.052;12.540;2024-03-22T04:31:05;3.28;;;3.08;;
40931;SDS011;36257;46.052;12.540;2024-03-22T04:33:35;2.73;;;2.50;;
40931;SDS011;36257;46.052;12.540;2024-03-22T04:36:02;3.30;;;3.00;;
40931;SDS011;36257;46.052;12.540;2024-03-22T04:38:29;3.10;;;2.85;;
40931;SDS011;36257;46.052;12.540;2024-03-22T04:40:55;3.15;;;2.95;;
40931;SDS011;36257;46.052;12.540;2024-03-22T04:43:25;3.60;;;2.72;;
40931;SDS011;36257;46.052;12.540;2024-03-22T04:45:52;3.05;;;2.65;;
40931;SDS011;36257;46.052;12.540;2024-03-22T04:48:21;3.47;;;3.28;;
40931;SDS011;36257;46.052;12.540;2024-03-22T04:50:48;2.83;;;2.63;;
40931;SDS011;36257;46.052;12.540;2024-03-22T04:53:16;2.35;;;2.25;;
40931;SDS011;36257;46.052;12.540;2024-03-22T04:55:47;3.58;;;2.20;;
40931;SDS011;36257;46.052;12.540;2024-03-22T04:58:23;2.33;;;2.10;;
40931;SDS011;36257;46.052;12.540;2024-03-22T05:00:57;2.60;;;2.40;;
40931;SDS011;36257;46.052;12.540;2024-03-22T05:03:28;2.47;;;2.35;;
40931;SDS011;36257;46.052;12.540;2024-03-22T05:05:56;3.13;;;2.92;;
40931;SDS011;36257;46.052;12.540;2024-03-22T05:08:23;2.30;;;2.10;;
40931;SDS011;36257;46.052;12.540;2024-03-22T05:10:49;2.10;;;2.00;;
40931;SDS011;36257;46.052;12.540;2024-03-22T05:13:14;2.58;;;2.38;;
40931;SDS011;36257;46.052;12.540;2024-03-22T05:15:40;3.05;;;2.17;;
40931;SDS011;36257;46.052;12.540;2024-03-22T05:18:06;2.28;;;2.17;;
40931;SDS011;36257;46.052;12.540;2024-03-22T05:20:31;2.50;;;2.25;;
40931;SDS011;36257;46.052;12.540;2024-03-22T05:22:57;2.65;;;2.45;;
40931;SDS011;36257;46.052;12.540;2024-03-22T05:25:23;3.40;;;2.15;;
40931;SDS011;36257;46.052;12.540;2024-03-22T05:27:49;2.08;;;1.98;;
40931;SDS011;36257;46.052;12.540;2024-03-22T05:30:14;4.55;;;4.18;;
40931;SDS011;36257;46.052;12.540;2024-03-22T05:32:40;3.20;;;2.90;;
40931;SDS011;36257;46.052;12.540;2024-03-22T05:35:06;3.03;;;2.78;;
40931;SDS011;36257;46.052;12.540;2024-03-22T05:37:32;2.72;;;2.53;;
40931;SDS011;36257;46.052;12.540;2024-03-22T05:39:59;2.60;;;2.40;;
40931;SDS011;36257;46.052;12.540;2024-03-22T05:42:25;2.20;;;2.00;;
40931;SDS011;36257;46.052;12.540;2024-03-22T05:44:51;3.53;;;2.40;;
40931;SDS011;36257;46.052;12.540;2024-03-22T05:47:17;3.75;;;3.40;;
40931;SDS011;36257;46.052;12.540;2024-03-22T05:49:43;3.03;;;2.78;;
40931;SDS011;36257;46.052;12.540;2024-03-22T05:52:09;2.42;;;2.30;;
40931;SDS011;36257;46.052;12.540;2024-03-22T05:54:35;2.90;;;2.70;;
40931;SDS011;36257;46.052;12.540;2024-03-22T05:57:00;2.95;;;2.63;;
40931;SDS011;36257;46.052;12.540;2024-03-22T05:59:27;3.13;;;2.92;;
40931;SDS011;36257;46.052;12.540;2024-03-22T06:01:52;3.53;;;3.05;;
40931;SDS011;36257;46.052;12.540;2024-03-22T06:04:18;5.53;;;3.45;;
40931;SDS011;36257;46.052;12.540;2024-03-22T06:06:43;3.97;;;3.00;;
40931;SDS011;36257;46.052;12.540;2024-03-22T06:09:09;3.42;;;3.13;;
40931;SDS011;36257;46.052;12.540;2024-03-22T06:11:36;4.00;;;2.70;;
40931;SDS011;36257;46.052;12.540;2024-03-22T06:14:02;2.05;;;1.95;;
40931;SDS011;36257;46.052;12.540;2024-03-22T06:16:27;2.47;;;2.28;;
40931;SDS011;36257;46.052;12.540;2024-03-22T06:18:53;2.70;;;2.45;;
40931;SDS011;36257;46.052;12.540;2024-03-22T06:21:19;3.55;;;3.25;;
40931;SDS011;36257;46.052;12.540;2024-03-22T06:23:49;3.22;;;2.92;;
40931;SDS011;36257;46.052;12.540;2024-03-22T06:26:15;3.22;;;2.92;;
40931;SDS011;36257;46.052;12.540;2024-03-22T06:28:41;3.67;;;2.88;;
40931;SDS011;36257;46.052;12.540;2024-03-22T06:31:07;8.07;;;5.22;;
40931;SDS011;36257;46.052;12.540;2024-03-22T06:33:33;5.35;;;3.95;;
40931;SDS011;36257;46.052;12.540;2024-03-22T06:35:58;7.55;;;6.43;;
40931;SDS011;36257;46.052;12.540;2024-03-22T06:38:24;8.15;;;4.63;;
40931;SDS011;36257;46.052;12.540;2024-03-22T06:40:50;4.35;;;3.95;;
40931;SDS011;36257;46.052;12.540;2024-03-22T06:43:16;4.65;;;3.88;;
40931;SDS011;36257;46.052;12.540;2024-03-22T06:45:41;3.38;;;3.17;;
40931;SDS011;36257;46.052;12.540;2024-03-22T06:48:07;3.25;;;2.95;;
40931;SDS011;36257;46.052;12.540;2024-03-22T06:50:32;12.20;;;4.40;;
40931;SDS011;36257;46.052;12.540;2024-03-22T06:52:58;20.52;;;4.30;;
40931;SDS011;36257;46.052;12.540;2024-03-22T06:55:24;9.27;;;3.72;;
40931;SDS011;36257;46.052;12.540;2024-03-22T06:57:49;10.00;;;3.40;;
40931;SDS011;36257;46.052;12.540;2024-03-22T07:00:17;3.97;;;3.60;;
40931;SDS011;36257;46.052;12.540;2024-03-22T07:02:43;3.90;;;3.47;;
40931;SDS011;36257;46.052;12.540;2024-03-22T07:05:09;10.10;;;4.75;;
40931;SDS011;36257;46.052;12.540;2024-03-22T07:07:36;6.20;;;5.65;;
40931;SDS011;36257;46.052;12.540;2024-03-22T07:10:02;6.30;;;5.68;;
40931;SDS011;36257;46.052;12.540;2024-03-22T07:12:28;6.47;;;5.82;;
40931;SDS011;36257;46.052;12.540;2024-03-22T07:14:58;6.68;;;6.00;;
40931;SDS011;36257;46.052;12.540;2024-03-22T07:17:24;7.82;;;6.00;;
40931;SDS011;36257;46.052;12.540;2024-03-22T07:19:50;6.78;;;6.15;;
40931;SDS011;36257;46.052;12.540;2024-03-22T07:22:17;9.15;;;7.40;;
40931;SDS011;36257;46.052;12.540;2024-03-22T07:24:43;8.73;;;6.65;;
40931;SDS011;36257;46.052;12.540;2024-03-22T07:27:08;11.02;;;7.82;;
40931;SDS011;36257;46.052;12.540;2024-03-22T07:29:34;8.98;;;7.75;;
40931;SDS011;36257;46.052;12.540;2024-03-22T07:32:00;8.75;;;7.18;;
40931;SDS011;36257;46.052;12.540;2024-03-22T07:34:25;9.50;;;8.30;;
40931;SDS011;36257;46.052;12.540;2024-03-22T07:36:51;11.65;;;9.27;;
40931;SDS011;36257;46.052;12.540;2024-03-22T07:39:17;9.45;;;8.55;;
40931;SDS011;36257;46.052;12.540;2024-03-22T07:41:42;9.75;;;8.80;;
40931;SDS011;36257;46.052;12.540;2024-03-22T07:44:08;9.75;;;8.73;;
40931;SDS011;36257;46.052;12.540;2024-03-22T07:46:33;16.42;;;9.25;;
40931;SDS011;36257;46.052;12.540;2024-03-22T07:48:59;11.07;;;9.05;;
40931;SDS011;36257;46.052;12.540;2024-03-22T07:51:25;13.48;;;9.25;;
40931;SDS011;36257;46.052;12.540;2024-03-22T07:53:50;12.68;;;8.57;;
40931;SDS011;36257;46.052;12.540;2024-03-22T07:56:17;10.13;;;9.05;;
40931;SDS011;36257;46.052;12.540;2024-03-22T07:58:44;13.43;;;11.50;;
40931;SDS011;36257;46.052;12.540;2024-03-22T08:01:09;13.45;;;12.02;;
40931;SDS011;36257;46.052;12.540;2024-03-22T08:03:35;12.68;;;11.02;;
40931;SDS011;36257;46.052;12.540;2024-03-22T08:06:01;13.77;;;12.25;;
40931;SDS011;36257;46.052;12.540;2024-03-22T08:08:26;15.32;;;12.85;;
40931;SDS011;36257;46.052;12.540;2024-03-22T08:10:52;14.05;;;12.55;;
40931;SDS011;36257;46.052;12.540;2024-03-22T08:13:18;14.50;;;12.73;;
40931;SDS011;36257;46.052;12.540;2024-03-22T08:15:43;18.55;;;14.65;;
40931;SDS011;36257;46.052;12.540;2024-03-22T08:18:10;14.63;;;13.13;;
40931;SDS011;36257;46.052;12.540;2024-03-22T08:20:36;15.50;;;12.55;;
40931;SDS011;36257;46.052;12.540;2024-03-22T08:23:03;14.88;;;13.27;;
40931;SDS011;36257;46.052;12.540;2024-03-22T08:25:29;16.67;;;14.27;;
40931;SDS011;36257;46.052;12.540;2024-03-22T08:27:55;15.38;;;13.57;;
40931;SDS011;36257;46.052;12.540;2024-03-22T08:30:21;13.52;;;12.07;;
40931;SDS011;36257;46.052;12.540;2024-03-22T08:32:47;14.00;;;12.52;;
40931;SDS011;36257;46.052;12.540;2024-03-22T08:35:13;14.65;;;12.45;;
40931;SDS011;36257;46.052;12.540;2024-03-22T08:37:38;12.07;;;10.70;;
40931;SDS011;36257;46.052;12.540;2024-03-22T08:40:04;13.40;;;12.00;;
40931;SDS011;36257;46.052;12.540;2024-03-22T08:42:30;15.68;;;13.32;;
40931;SDS011;36257;46.052;12.540;2024-03-22T08:44:55;13.55;;;11.07;;
40931;SDS011;36257;46.052;12.540;2024-03-22T08:47:21;13.93;;;12.48;;
40931;SDS011;36257;46.052;12.540;2024-03-22T08:49:48;15.43;;;13.23;;
40931;SDS011;36257;46.052;12.540;2024-03-22T08:52:14;14.00;;;12.57;;
40931;SDS011;36257;46.052;12.540;2024-03-22T08:54:40;13.48;;;11.70;;
40931;SDS011;36257;46.052;12.540;2024-03-22T08:57:05;11.70;;;10.50;;
40931;SDS011;36257;46.052;12.540;2024-03-22T08:59:31;11.90;;;10.50;;
40931;SDS011;36257;46.052;12.540;2024-03-22T09:01:57;12.45;;;11.15;;
40931;SDS011;36257;46.052;12.540;2024-03-22T09:04:22;11.60;;;10.25;;
40931;SDS011;36257;46.052;12.540;2024-03-22T09:06:48;11.20;;;10.02;;
40931;SDS011;36257;46.052;12.540;2024-03-22T09:09:13;14.23;;;10.70;;
40931;SDS011;36257;46.052;12.540;2024-03-22T09:11:39;12.05;;;10.20;;
40931;SDS011;36257;46.052;12.540;2024-03-22T09:14:04;12.13;;;10.82;;
40931;SDS011;36257;46.052;12.540;2024-03-22T09:16:30;16.25;;;12.15;;
40931;SDS011;36257;46.052;12.540;2024-03-22T09:18:56;11.77;;;10.23;;
40931;SDS011;36257;46.052;12.540;2024-03-22T09:21:21;11.35;;;10.15;;
40931;SDS011;36257;46.052;12.540;2024-03-22T09:23:49;12.38;;;11.07;;
40931;SDS011;36257;46.052;12.540;2024-03-22T09:26:15;10.82;;;9.65;;
40931;SDS011;36257;46.052;12.540;2024-03-22T09:28:40;10.15;;;9.13;;
40931;SDS011;36257;46.052;12.540;2024-03-22T09:31:07;12.02;;;10.35;;
40931;SDS011;36257;46.052;12.540;2024-03-22T09:33:33;9.85;;;8.85;;
40931;SDS011;36257;46.052;12.540;2024-03-22T09:35:59;14.40;;;9.30;;
40931;SDS011;36257;46.052;12.540;2024-03-22T09:38:25;10.20;;;9.13;;
40931;SDS011;36257;46.052;12.540;2024-03-22T09:40:51;10.10;;;9.02;;
40931;SDS011;36257;46.052;12.540;2024-03-22T09:43:19;11.25;;;10.05;;
40931;SDS011;36257;46.052;12.540;2024-03-22T09:45:46;11.40;;;9.48;;
40931;SDS011;36257;46.052;12.540;2024-03-22T09:48:17;9.82;;;8.82;;
40931;SDS011;36257;46.052;12.540;2024-03-22T09:50:44;10.65;;;9.55;;
40931;SDS011;36257;46.052;12.540;2024-03-22T09:53:13;8.18;;;7.40;;
40931;SDS011;36257;46.052;12.540;2024-03-22T09:55:42;10.55;;;9.48;;
40931;SDS011;36257;46.052;12.540;2024-03-22T09:58:10;9.52;;;8.50;;
40931;SDS011;36257;46.052;12.540;2024-03-22T10:00:36;10.15;;;7.68;;
40931;SDS011;36257;46.052;12.540;2024-03-22T10:03:01;9.40;;;8.48;;
40931;SDS011;36257;46.052;12.540;2024-03-22T10:05:30;8.63;;;6.68;;
40931;SDS011;36257;46.052;12.540;2024-03-22T10:07:56;9.27;;;8.38;;
40931;SDS011;36257;46.052;12.540;2024-03-22T10:10:23;7.88;;;7.05;;
40931;SDS011;36257;46.052;12.540;2024-03-22T10:12:48;7.80;;;6.95;;
40931;SDS011;36257;46.052;12.540;2024-03-22T10:15:14;10.23;;;7.53;;
40931;SDS011;36257;46.052;12.540;2024-03-22T10:17:41;9.88;;;8.13;;
40931;SDS011;36257;46.052;12.540;2024-03-22T10:20:07;11.00;;;7.85;;
40931;SDS011;36257;46.052;12.540;2024-03-22T10:22:48;11.15;;;8.18;;
40931;SDS011;36257;46.052;12.540;2024-03-22T10:25:20;8.60;;;6.32;;
40931;SDS011;36257;46.052;12.540;2024-03-22T10:27:45;11.15;;;6.60;;
40931;SDS011;36257;46.052;12.540;2024-03-22T10:30:12;9.07;;;5.65;;
40931;SDS011;36257;46.052;12.540;2024-03-22T10:32:44;8.35;;;5.47;;
40931;SDS011;36257;46.052;12.540;2024-03-22T10:35:13;8.18;;;6.63;;
40931;SDS011;36257;46.052;12.540;2024-03-22T10:37:39;8.82;;;6.22;;
40931;SDS011;36257;46.052;12.540;2024-03-22T10:40:05;8.50;;;6.00;;
40931;SDS011;36257;46.052;12.540;2024-03-22T10:42:33;7.20;;;6.43;;
40931;SDS011;36257;46.052;12.540;2024-03-22T10:45:03;7.45;;;5.72;;
40931;SDS011;36257;46.052;12.540;2024-03-22T10:47:30;6.32;;;4.55;;
40931;SDS011;36257;46.052;12.540;2024-03-22T10:52:56;7.20;;;6.38;;
40931;SDS011;36257;46.052;12.540;2024-03-22T10:55:32;7.95;;;6.40;;
40931;SDS011;36257;46.052;12.540;2024-03-22T10:58:00;7.55;;;6.30;;
40931;SDS011;36257;46.052;12.540;2024-03-22T11:02:56;7.32;;;6.35;;
40931;SDS011;36257;46.052;12.540;2024-03-22T11:05:22;8.68;;;7.03;;
40931;SDS011;36257;46.052;12.540;2024-03-22T11:07:47;8.50;;;6.97;;
40931;SDS011;36257;46.052;12.540;2024-03-22T11:10:25;8.18;;;6.20;;
40931;SDS011;36257;46.052;12.540;2024-03-22T11:12:54;6.22;;;5.57;;
40931;SDS011;36257;46.052;12.540;2024-03-22T11:15:20;8.20;;;6.80;;
40931;SDS011;36257;46.052;12.540;2024-03-22T11:17:47;7.05;;;5.70;;
40931;SDS011;36257;46.052;12.540;2024-03-22T11:20:14;6.88;;;6.05;;
40931;SDS011;36257;46.052;12.540;2024-03-22T11:22:40;4.53;;;3.60;;
40931;SDS011;36257;46.052;12.540;2024-03-22T11:25:06;6.28;;;4.07;;
40931;SDS011;36257;46.052;12.540;2024-03-22T11:27:32;6.65;;;5.43;;
40931;SDS011;36257;46.052;12.540;2024-03-22T11:29:58;3.90;;;3.60;;
40931;SDS011;36257;46.052;12.540;2024-03-22T11:32:23;4.95;;;3.83;;
40931;SDS011;36257;46.052;12.540;2024-03-22T11:34:49;6.68;;;3.53;;
40931;SDS011;36257;46.052;12.540;2024-03-22T11:37:15;5.53;;;4.45;;
40931;SDS011;36257;46.052;12.540;2024-03-22T11:39:40;6.10;;;4.60;;
40931;SDS011;36257;46.052;12.540;2024-03-22T11:42:06;6.57;;;5.97;;
40931;SDS011;36257;46.052;12.540;2024-03-22T11:44:33;4.97;;;4.35;;
40931;SDS011;36257;46.052;12.540;2024-03-22T11:47:01;4.90;;;4.35;;
40931;SDS011;36257;46.052;12.540;2024-03-22T11:49:28;6.03;;;5.30;;
40931;SDS011;36257;46.052;12.540;2024-03-22T11:51:54;7.10;;;5.82;;
40931;SDS011;36257;46.052;12.540;2024-03-22T11:54:21;5.10;;;4.70;;
40931;SDS011;36257;46.052;12.540;2024-03-22T11:56:48;11.25;;;6.32;;
40931;SDS011;36257;46.052;12.540;2024-03-22T11:59:14;6.30;;;5.50;;
40931;SDS011;36257;46.052;12.540;2024-03-22T12:01:42;6.43;;;4.88;;
40931;SDS011;36257;46.052;12.540;2024-03-22T12:04:08;4.53;;;3.85;;
40931;SDS011;36257;46.052;12.540;2024-03-22T12:06:43;3.42;;;3.13;;
40931;SDS011;36257;46.052;12.540;2024-03-22T12:09:09;5.47;;;4.28;;
40931;SDS011;36257;46.052;12.540;2024-03-22T12:11:37;5.22;;;3.25;;
40931;SDS011;36257;46.052;12.540;2024-03-22T12:14:03;4.38;;;2.85;;
40931;SDS011;36257;46.052;12.540;2024-03-22T12:16:29;3.08;;;2.67;;
40931;SDS011;36257;46.052;12.540;2024-03-22T12:18:54;5.50;;;2.80;;
40931;SDS011;36257;46.052;12.540;2024-03-22T12:21:20;4.97;;;3.55;;
40931;SDS011;36257;46.052;12.540;2024-03-22T12:23:46;7.68;;;3.85;;
40931;SDS011;36257;46.052;12.540;2024-03-22T12:26:11;4.72;;;3.88;;
40931;SDS011;36257;46.052;12.540;2024-03-22T12:28:37;3.90;;;3.28;;
40931;SDS011;36257;46.052;12.540;2024-03-22T12:31:04;3.67;;;3.00;;
40931;SDS011;36257;46.052;12.540;2024-03-22T12:33:30;4.22;;;3.25;;
40931;SDS011;36257;46.052;12.540;2024-03-22T12:35:55;4.88;;;3.53;;
40931;SDS011;36257;46.052;12.540;2024-03-22T12:38:21;6.60;;;3.10;;
40931;SDS011;36257;46.052;12.540;2024-03-22T12:40:46;4.22;;;3.78;;
40931;SDS011;36257;46.052;12.540;2024-03-22T12:43:12;5.28;;;4.05;;
40931;SDS011;36257;46.052;12.540;2024-03-22T12:45:38;6.60;;;5.47;;
40931;SDS011;36257;46.052;12.540;2024-03-22T12:48:04;5.45;;;4.82;;
40931;SDS011;36257;46.052;12.540;2024-03-22T12:50:30;6.65;;;3.97;;
40931;SDS011;36257;46.052;12.540;2024-03-22T12:52:56;5.65;;;5.15;;
40931;SDS011;36257;46.052;12.540;2024-03-22T12:55:22;7.45;;;5.70;;
40931;SDS011;36257;46.052;12.540;2024-03-22T12:57:47;6.35;;;5.68;;
40931;SDS011;36257;46.052;12.540;2024-03-22T13:00:13;6.30;;;5.68;;
40931;SDS011;36257;46.052;12.540;2024-03-22T13:02:43;8.15;;;5.35;;
40931;SDS011;36257;46.052;12.540;2024-03-22T13:05:09;7.00;;;5.70;;
40931;SDS011;36257;46.052;12.540;2024-03-22T13:07:35;7.93;;;5.88;;
40931;SDS011;36257;46.052;12.540;2024-03-22T13:10:02;7.20;;;6.47;;
40931;SDS011;36257;46.052;12.540;2024-03-22T13:12:28;6.63;;;6.03;;
40931;SDS011;36257;46.052;12.540;2024-03-22T13:14:56;8.30;;;6.82;;
40931;SDS011;36257;46.052;12.540;2024-03-22T13:17:22;8.90;;;6.43;;
40931;SDS011;36257;46.052;12.540;2024-03-22T13:19:48;6.55;;;5.90;;
40931;SDS011;36257;46.052;12.540;2024-03-22T13:22:14;6.60;;;5.53;;
40931;SDS011;36257;46.052;12.540;2024-03-22T13:24:43;7.30;;;5.10;;
40931;SDS011;36257;46.052;12.540;2024-03-22T13:27:12;7.18;;;5.03;;
40931;SDS011;36257;46.052;12.540;2024-03-22T13:29:39;5.32;;;4.50;;
40931;SDS011;36257;46.052;12.540;2024-03-22T13:32:05;5.05;;;4.32;;
40931;SDS011;36257;46.052;12.540;2024-03-22T13:34:33;5.25;;;4.75;;
40931;SDS011;36257;46.052;12.540;2024-03-22T13:37:02;4.30;;;3.88;;
40931;SDS011;36257;46.052;12.540;2024-03-22T13:39:28;5.43;;;4.25;;
40931;SDS011;36257;46.052;12.540;2024-03-22T13:41:56;5.53;;;4.57;;
40931;SDS011;36257;46.052;12.540;2024-03-22T13:44:22;5.97;;;4.00;;
40931;SDS011;36257;46.052;12.540;2024-03-22T13:46:49;5.47;;;4.13;;
40931;SDS011;36257;46.052;12.540;2024-03-22T13:49:18;5.80;;;3.88;;
40931;SDS011;36257;46.052;12.540;2024-03-22T13:51:46;3.40;;;3.10;;
40931;SDS011;36257;46.052;12.540;2024-03-22T13:54:12;7.32;;;2.97;;
40931;SDS011;36257;46.052;12.540;2024-03-22T13:56:39;4.90;;;3.47;;
40931;SDS011;36257;46.052;12.540;2024-03-22T13:59:05;4.15;;;3.75;;
40931;SDS011;36257;46.052;12.540;2024-03-22T14:01:32;4.70;;;3.13;;
40931;SDS011;36257;46.052;12.540;2024-03-22T14:03:57;6.30;;;4.45;;
40931;SDS011;36257;46.052;12.540;2024-03-22T14:06:23;4.68;;;3.22;;
40931;SDS011;36257;46.052;12.540;2024-03-22T14:08:48;5.10;;;3.92;;
40931;SDS011;36257;46.052;12.540;2024-03-22T14:11:14;7.57;;;4.10;;
40931;SDS011;36257;46.052;12.540;2024-03-22T14:13:40;5.53;;;3.92;;
40931;SDS011;36257;46.052;12.540;2024-03-22T14:16:05;5.13;;;4.30;;
40931;SDS011;36257;46.052;12.540;2024-03-22T14:18:33;5.00;;;3.80;;
40931;SDS011;36257;46.052;12.540;2024-03-22T14:21:00;5.90;;;3.40;;
40931;SDS011;36257;46.052;12.540;2024-03-22T14:23:27;5.03;;;3.40;;
40931;SDS011;36257;46.052;12.540;2024-03-22T14:25:54;7.65;;;3.58;;
40931;SDS011;36257;46.052;12.540;2024-03-22T14:28:20;3.88;;;3.47;;
40931;SDS011;36257;46.052;12.540;2024-03-22T14:30:46;5.20;;;4.10;;
40931;SDS011;36257;46.052;12.540;2024-03-22T14:33:12;4.90;;;4.40;;